Time;durP1;ratioP1;P1;durP2;ratioP2;P2;SDS_P1;SDS_P2;PMS_P1;PMS_P2;Temp;Humidity;BMP_temperature;BMP_pressure;BME280_temperature;BME280_humidity;BME280_pressure;Samples;Min_cycle;Max_cycle;Signal;HPM_P1;HPM_P2
2023/08/03 00:00:25;;;;;;;;;;;21.30;60.40;;;;;;5042882;28;19929;-58
2023/08/03 00:02:52;;;;;;;;;;;21.30;60.60;;;;;;5039808;28;19933;-58
2023/08/03 00:05:19;;;;;;;;;;;21.30;60.40;;;;;;5049449;28;19925;-58
2023/08/03 00:07:46;;;;;;;;;;;21.30;60.50;;;;;;5053682;28;19925;-58
2023/08/03 00:10:13;;;;;;;;;;;21.30;60.60;;;;;;5068963;28;19925;-58
2023/08/03 00:12:40;;;;;;;;;;;21.30;60.50;;;;;;5047551;28;19939;-58
2023/08/03 00:15:09;;;;;;;;;;;21.30;60.60;;;;;;5051147;28;20245;-58
2023/08/03 00:17:35;;;;;;;;;;;21.30;60.60;;;;;;5053220;28;19933;-58
2023/08/03 00:20:03;;;;;;;;;;;21.30;60.60;;;;;;5032308;28;19925;-58
2023/08/03 00:22:30;;;;;;;;;;;21.30;60.60;;;;;;5051804;28;19928;-59
2023/08/03 00:24:58;;;;;;;;;;;21.30;60.70;;;;;;5048532;28;19925;-59
2023/08/03 00:27:24;;;;;;;;;;;21.30;60.70;;;;;;5048934;28;19929;-58
2023/08/03 00:29:51;;;;;;;;;;;21.30;60.70;;;;;;5049846;28;19936;-59
2023/08/03 00:32:19;;;;;;;;;;;21.30;60.70;;;;;;5040788;28;19929;-59
2023/08/03 00:34:46;;;;;;;;;;;21.30;60.80;;;;;;5051544;28;19980;-59
2023/08/03 00:37:13;;;;;;;;;;;21.30;60.80;;;;;;5065757;28;19925;-58
2023/08/03 00:39:40;;;;;;;;;;;21.30;60.90;;;;;;5050174;28;19975;-58
2023/08/03 00:42:07;;;;;;;;;;;21.30;60.90;;;;;;5036399;28;19925;-59
2023/08/03 00:44:33;;;;;;;;;;;21.30;60.90;;;;;;5052376;28;19940;-58
2023/08/03 00:47:00;;;;;;;;;;;21.30;61.00;;;;;;5052006;28;19931;-58
2023/08/03 00:49:28;;;;;;;;;;;21.30;61.00;;;;;;5052478;28;19929;-59
2023/08/03 00:51:55;;;;;;;;;;;21.30;61.10;;;;;;5052593;28;20015;-58
2023/08/03 00:54:22;;;;;;;;;;;21.30;61.00;;;;;;5047295;28;19997;-58
2023/08/03 00:56:49;;;;;;;;;;;21.30;61.10;;;;;;5047705;28;19994;-59
2023/08/03 00:59:16;;;;;;;;;;;21.30;61.20;;;;;;5051583;28;19932;-58
2023/08/03 01:01:42;;;;;;;;;;;21.30;61.20;;;;;;5042318;28;19998;-58
2023/08/03 01:04:10;;;;;;;;;;;21.30;61.20;;;;;;5051372;28;19928;-59
2023/08/03 01:06:38;;;;;;;;;;;21.30;61.20;;;;;;5031850;28;19933;-58
2023/08/03 01:09:05;;;;;;;;;;;21.30;61.30;;;;;;5048344;28;19928;-59
2023/08/03 01:11:31;;;;;;;;;;;21.30;61.30;;;;;;5045393;28;19974;-58
2023/08/03 01:13:58;;;;;;;;;;;21.30;61.30;;;;;;5046130;28;19924;-58
2023/08/03 01:16:25;;;;;;;;;;;21.30;61.40;;;;;;5051663;28;19929;-58
2023/08/03 01:18:52;;;;;;;;;;;21.30;61.40;;;;;;5051428;28;19929;-58
2023/08/03 01:21:19;;;;;;;;;;;21.30;61.40;;;;;;5067754;28;19982;-58
2023/08/03 01:23:47;;;;;;;;;;;21.40;61.60;;;;;;5044383;28;19982;-58
2023/08/03 01:26:14;;;;;;;;;;;21.30;61.50;;;;;;5050053;28;19978;-58
2023/08/03 01:28:41;;;;;;;;;;;21.30;61.50;;;;;;5051392;28;19974;-58
2023/08/03 01:31:08;;;;;;;;;;;21.40;61.60;;;;;;5051693;28;19925;-59
2023/08/03 01:33:34;;;;;;;;;;;21.30;61.60;;;;;;5048753;28;19932;-58
2023/08/03 01:36:01;;;;;;;;;;;21.40;61.70;;;;;;5043122;28;19924;-58
2023/08/03 01:38:28;;;;;;;;;;;21.40;61.70;;;;;;5043947;28;19997;-58
2023/08/03 01:40:56;;;;;;;;;;;21.40;61.70;;;;;;5045884;28;19925;-58
2023/08/03 01:43:23;;;;;;;;;;;21.40;61.70;;;;;;5046631;28;19928;-59
2023/08/03 01:45:50;;;;;;;;;;;21.40;61.80;;;;;;5052324;28;19975;-59
2023/08/03 01:48:16;;;;;;;;;;;21.30;61.60;;;;;;5052251;28;19924;-58
2023/08/03 01:50:43;;;;;;;;;;;21.40;61.80;;;;;;5042611;28;19928;-58
2023/08/03 01:53:13;;;;;;;;;;;21.30;61.70;;;;;;5047434;28;19931;-58
2023/08/03 01:55:39;;;;;;;;;;;21.30;61.70;;;;;;5055391;28;19926;-58
2023/08/03 01:58:08;;;;;;;;;;;21.30;61.70;;;;;;5047844;28;19979;-58
2023/08/03 02:00:35;;;;;;;;;;;21.40;61.80;;;;;;5048512;28;19954;-59
2023/08/03 02:03:01;;;;;;;;;;;21.40;61.90;;;;;;5051486;28;19924;-58
2023/08/03 02:05:28;;;;;;;;;;;21.40;61.80;;;;;;5069681;28;19925;-59
2023/08/03 02:07:55;;;;;;;;;;;21.30;61.70;;;;;;5051394;28;19925;-59
2023/08/03 02:10:22;;;;;;;;;;;21.40;61.90;;;;;;5045855;28;19925;-59
2023/08/03 02:12:49;;;;;;;;;;;21.40;61.90;;;;;;5049561;28;19951;-59
2023/08/03 02:15:17;;;;;;;;;;;21.40;61.80;;;;;;5038931;28;19937;-59
2023/08/03 02:17:44;;;;;;;;;;;21.40;61.80;;;;;;5048061;28;19928;-59
2023/08/03 02:20:11;;;;;;;;;;;21.30;61.70;;;;;;5041181;28;19975;-59
2023/08/03 02:22:38;;;;;;;;;;;21.40;61.90;;;;;;5046032;28;19984;-59
2023/08/03 02:25:05;;;;;;;;;;;21.40;61.90;;;;;;5073257;28;19925;-59
2023/08/03 02:27:32;;;;;;;;;;;21.40;61.90;;;;;;5045681;28;19929;-59
2023/08/03 02:29:59;;;;;;;;;;;21.40;61.90;;;;;;5050336;28;19925;-59
2023/08/03 02:32:27;;;;;;;;;;;21.40;62.00;;;;;;5048945;28;19955;-59
2023/08/03 02:34:54;;;;;;;;;;;21.40;62.00;;;;;;5044485;28;19928;-58
2023/08/03 02:37:20;;;;;;;;;;;21.40;61.90;;;;;;5050403;28;19932;-59
2023/08/03 02:39:47;;;;;;;;;;;21.40;61.90;;;;;;5075931;28;19925;-59
2023/08/03 02:42:14;;;;;;;;;;;21.40;61.90;;;;;;5038989;28;19929;-59
2023/08/03 02:44:40;;;;;;;;;;;21.40;62.00;;;;;;5047075;28;20278;-59
2023/08/03 02:47:07;;;;;;;;;;;21.40;62.00;;;;;;5050036;28;19925;-59
2023/08/03 02:49:35;;;;;;;;;;;21.40;62.00;;;;;;5047381;28;19929;-59
2023/08/03 02:52:02;;;;;;;;;;;21.40;62.00;;;;;;5039226;28;19970;-60
2023/08/03 02:54:29;;;;;;;;;;;21.40;62.00;;;;;;5042721;28;19948;-58
2023/08/03 02:56:56;;;;;;;;;;;21.40;62.00;;;;;;5050627;28;19974;-58
2023/08/03 02:59:22;;;;;;;;;;;21.40;62.00;;;;;;5041922;28;19969;-58
2023/08/03 03:01:49;;;;;;;;;;;21.40;62.00;;;;;;5049259;28;19920;-58
2023/08/03 03:04:16;;;;;;;;;;;21.40;62.00;;;;;;5043122;28;19933;-58
2023/08/03 03:06:44;;;;;;;;;;;21.40;62.00;;;;;;5048292;28;19928;-59
2023/08/03 03:09:11;;;;;;;;;;;21.40;62.00;;;;;;5051520;28;19951;-59
2023/08/03 03:11:38;;;;;;;;;;;21.40;62.00;;;;;;5048164;28;19967;-58
2023/08/03 03:14:04;;;;;;;;;;;21.40;62.00;;;;;;5043993;28;20038;-59
2023/08/03 03:16:31;;;;;;;;;;;21.40;62.00;;;;;;5045081;28;19925;-59
2023/08/03 03:18:58;;;;;;;;;;;21.40;62.10;;;;;;5050020;28;19925;-59
2023/08/03 03:21:24;;;;;;;;;;;21.40;62.10;;;;;;5045024;28;19933;-59
2023/08/03 03:23:53;;;;;;;;;;;21.40;62.10;;;;;;5049947;28;19925;-59
2023/08/03 03:26:19;;;;;;;;;;;21.40;62.10;;;;;;5049080;28;19925;-59
2023/08/03 03:28:46;;;;;;;;;;;21.40;62.10;;;;;;5045910;28;20011;-58
2023/08/03 03:31:13;;;;;;;;;;;21.40;62.10;;;;;;5046424;28;19933;-58
2023/08/03 03:33:40;;;;;;;;;;;21.40;62.10;;;;;;5057361;28;19929;-59
2023/08/03 03:36:07;;;;;;;;;;;21.40;62.10;;;;;;5046634;28;19941;-59
2023/08/03 03:38:34;;;;;;;;;;;21.40;62.10;;;;;;5048320;28;19988;-58
2023/08/03 03:41:02;;;;;;;;;;;21.40;62.20;;;;;;5049746;28;19929;-59
2023/08/03 03:43:29;;;;;;;;;;;21.40;62.20;;;;;;5045731;28;20024;-59
2023/08/03 03:45:55;;;;;;;;;;;21.40;62.30;;;;;;5049744;28;19925;-59
2023/08/03 03:48:22;;;;;;;;;;;21.40;62.30;;;;;;5042118;28;20450;-59
2023/08/03 03:50:49;;;;;;;;;;;21.40;62.30;;;;;;5049980;28;19925;-59
2023/08/03 03:53:15;;;;;;;;;;;21.40;62.20;;;;;;5049459;28;19928;-59
2023/08/03 03:55:42;;;;;;;;;;;21.40;62.30;;;;;;5049175;28;19933;-59
2023/08/03 03:58:10;;;;;;;;;;;21.40;62.30;;;;;;5046120;28;20024;-59
2023/08/03 04:00:40;;;;;;;;;;;21.40;63.00;;;;;;5049653;28;19925;-58
2023/08/03 04:03:07;;;;;;;;;;;21.40;62.30;;;;;;5048537;28;20353;-58
2023/08/03 04:05:34;;;;;;;;;;;21.40;62.30;;;;;;5048101;28;19964;-59
2023/08/03 04:08:00;;;;;;;;;;;21.40;62.30;;;;;;5052737;28;19975;-58
2023/08/03 04:10:27;;;;;;;;;;;21.40;62.30;;;;;;5049658;28;20103;-58
2023/08/03 04:12:54;;;;;;;;;;;21.40;62.30;;;;;;5072050;28;19925;-59
2023/08/03 04:15:22;;;;;;;;;;;21.40;62.40;;;;;;5049743;28;20342;-59
2023/08/03 04:17:49;;;;;;;;;;;21.40;62.40;;;;;;5052323;28;19966;-59
2023/08/03 04:20:16;;;;;;;;;;;21.40;62.40;;;;;;5052484;28;19960;-59
2023/08/03 04:22:43;;;;;;;;;;;21.40;62.40;;;;;;5053279;28;19978;-59
2023/08/03 04:25:11;;;;;;;;;;;21.40;62.40;;;;;;5047283;28;19928;-59
2023/08/03 04:27:38;;;;;;;;;;;21.40;62.40;;;;;;5052237;28;19925;-58
2023/08/03 04:30:06;;;;;;;;;;;21.40;62.40;;;;;;5052204;28;19924;-58
2023/08/03 04:32:34;;;;;;;;;;;21.40;62.40;;;;;;5051042;28;19925;-58
2023/08/03 04:35:01;;;;;;;;;;;21.40;62.40;;;;;;5052708;28;19924;-59
2023/08/03 04:37:28;;;;;;;;;;;21.40;62.40;;;;;;5045181;28;19925;-59
2023/08/03 04:39:55;;;;;;;;;;;21.40;62.40;;;;;;5049387;28;19925;-59
2023/08/03 04:42:21;;;;;;;;;;;21.40;62.50;;;;;;5049900;28;19932;-58
2023/08/03 04:44:49;;;;;;;;;;;21.40;62.50;;;;;;5049028;28;19932;-59
2023/08/03 04:47:16;;;;;;;;;;;21.40;62.50;;;;;;5048277;28;19929;-58
2023/08/03 04:49:44;;;;;;;;;;;21.40;62.50;;;;;;5052088;28;19929;-58
2023/08/03 04:52:11;;;;;;;;;;;21.40;62.60;;;;;;5045118;28;19929;-58
2023/08/03 04:54:38;;;;;;;;;;;21.40;62.50;;;;;;5052242;28;19925;-59
2023/08/03 04:57:05;;;;;;;;;;;21.40;62.60;;;;;;5047377;28;20352;-59
2023/08/03 04:59:32;;;;;;;;;;;21.40;62.50;;;;;;5047782;28;19925;-59
2023/08/03 05:01:59;;;;;;;;;;;21.40;62.50;;;;;;5043639;28;19933;-59
2023/08/03 05:04:26;;;;;;;;;;;21.40;62.50;;;;;;5052611;28;19941;-58
2023/08/03 05:06:54;;;;;;;;;;;21.40;62.50;;;;;;5046335;28;19929;-59
2023/08/03 05:09:21;;;;;;;;;;;21.40;62.50;;;;;;5049077;28;19931;-58
2023/08/03 05:11:48;;;;;;;;;;;21.40;62.50;;;;;;5047802;28;19932;-58
2023/08/03 05:14:14;;;;;;;;;;;21.40;62.50;;;;;;5050294;28;19932;-59
2023/08/03 05:16:41;;;;;;;;;;;21.40;62.50;;;;;;5043702;28;19933;-59
2023/08/03 05:19:08;;;;;;;;;;;21.40;62.50;;;;;;5047451;28;19925;-58
2023/08/03 05:21:35;;;;;;;;;;;21.40;62.60;;;;;;5063827;28;19931;-57
2023/08/03 05:24:03;;;;;;;;;;;21.40;62.50;;;;;;5048264;28;19925;-59
2023/08/03 05:26:32;;;;;;;;;;;21.40;62.50;;;;;;5040817;28;19925;-59
2023/08/03 05:28:59;;;;;;;;;;;21.40;62.50;;;;;;5039445;28;20262;-59
2023/08/03 05:31:26;;;;;;;;;;;21.40;62.60;;;;;;5036163;28;19987;-59
2023/08/03 05:33:52;;;;;;;;;;;21.40;62.60;;;;;;5071661;28;20141;-58
2023/08/03 05:36:19;;;;;;;;;;;21.40;62.60;;;;;;5045438;28;19925;-58
2023/08/03 05:38:46;;;;;;;;;;;21.40;62.60;;;;;;5045286;28;19951;-59
2023/08/03 05:41:15;;;;;;;;;;;21.40;62.60;;;;;;5049628;28;19925;-58
2023/08/03 05:43:42;;;;;;;;;;;21.40;62.60;;;;;;5046152;28;19968;-61
2023/08/03 05:46:12;;;;;;;;;;;21.40;62.60;;;;;;5050509;28;19924;-58
2023/08/03 05:48:39;;;;;;;;;;;21.40;62.60;;;;;;5039932;28;19992;-58
2023/08/03 05:51:05;;;;;;;;;;;21.40;62.60;;;;;;5047129;28;19925;-57
2023/08/03 05:53:32;;;;;;;;;;;21.40;62.70;;;;;;5045111;28;19928;-58
2023/08/03 05:55:59;;;;;;;;;;;21.40;62.70;;;;;;5053630;28;19933;-58
2023/08/03 05:58:27;;;;;;;;;;;21.40;62.70;;;;;;5042181;28;19974;-59
2023/08/03 06:00:54;;;;;;;;;;;21.40;62.70;;;;;;5045869;28;19924;-58
2023/08/03 06:03:21;;;;;;;;;;;21.40;62.70;;;;;;5060783;28;20326;-58
2023/08/03 06:05:48;;;;;;;;;;;21.40;62.70;;;;;;5046567;28;19936;-59
2023/08/03 06:08:15;;;;;;;;;;;21.40;62.70;;;;;;5042434;28;19932;-59
2023/08/03 06:10:42;;;;;;;;;;;21.40;62.70;;;;;;5038836;28;19925;-57
2023/08/03 06:13:10;;;;;;;;;;;21.40;62.80;;;;;;5040495;28;19925;-58
2023/08/03 06:15:38;;;;;;;;;;;21.40;62.80;;;;;;5044878;28;19955;-58
2023/08/03 06:18:05;;;;;;;;;;;21.40;62.80;;;;;;5042157;28;20011;-58
2023/08/03 06:20:32;;;;;;;;;;;21.40;62.90;;;;;;5045686;28;19932;-58
2023/08/03 06:22:59;;;;;;;;;;;21.40;62.90;;;;;;5036188;28;19925;-58
2023/08/03 06:25:26;;;;;;;;;;;21.40;62.90;;;;;;5050221;28;20475;-58
2023/08/03 06:27:53;;;;;;;;;;;21.40;62.90;;;;;;5046844;28;19979;-57
2023/08/03 06:30:19;;;;;;;;;;;21.40;62.90;;;;;;5050401;28;19936;-58
2023/08/03 06:32:48;;;;;;;;;;;21.40;62.90;;;;;;5049597;28;19924;-58
2023/08/03 06:35:25;;;;;;;;;;;21.40;62.90;;;;;;5023662;28;19932;-58
2023/08/03 06:37:53;;;;;;;;;;;21.40;63.00;;;;;;5036916;28;19925;-58
2023/08/03 06:40:20;;;;;;;;;;;21.40;63.00;;;;;;5039397;28;20329;-59
2023/08/03 06:42:46;;;;;;;;;;;21.40;63.00;;;;;;5032569;28;19929;-59
2023/08/03 06:45:13;;;;;;;;;;;21.40;62.90;;;;;;5044443;28;19925;-58
2023/08/03 06:47:40;;;;;;;;;;;21.50;63.10;;;;;;5045977;28;20039;-59
2023/08/03 06:50:09;;;;;;;;;;;21.50;63.00;;;;;;5049437;28;19936;-59
2023/08/03 06:52:36;;;;;;;;;;;21.50;63.10;;;;;;5046531;28;20023;-58
2023/08/03 06:55:03;;;;;;;;;;;21.50;63.10;;;;;;5047394;28;19925;-57
2023/08/03 06:57:29;;;;;;;;;;;21.50;63.10;;;;;;5047982;28;19921;-59
2023/08/03 06:59:56;;;;;;;;;;;21.50;63.10;;;;;;5048954;28;20047;-58
2023/08/03 07:02:23;;;;;;;;;;;21.50;63.20;;;;;;5039199;28;19932;-58
2023/08/03 07:04:50;;;;;;;;;;;21.50;63.30;;;;;;5042457;28;19933;-58
2023/08/03 07:07:18;;;;;;;;;;;21.50;63.30;;;;;;5045694;28;19924;-58
2023/08/03 07:09:48;;;;;;;;;;;21.50;63.30;;;;;;5048917;28;19925;-59
2023/08/03 07:12:14;;;;;;;;;;;21.50;63.30;;;;;;5046513;28;19956;-59
2023/08/03 07:14:41;;;;;;;;;;;21.50;63.30;;;;;;5067969;28;19925;-58
2023/08/03 07:17:08;;;;;;;;;;;21.50;63.40;;;;;;5066498;28;19926;-59
2023/08/03 07:19:35;;;;;;;;;;;21.50;63.40;;;;;;5047311;28;19929;-58
2023/08/03 07:22:01;;;;;;;;;;;21.50;63.40;;;;;;5049118;28;19932;-59
2023/08/03 07:24:30;;;;;;;;;;;21.60;64.20;;;;;;5048091;28;19924;-59
2023/08/03 07:26:56;;;;;;;;;;;21.50;63.40;;;;;;5047761;28;19932;-58
2023/08/03 07:29:23;;;;;;;;;;;21.60;63.50;;;;;;5046494;28;19925;-58
2023/08/03 07:31:50;;;;;;;;;;;21.60;63.40;;;;;;5049500;28;19929;-59
2023/08/03 07:34:17;;;;;;;;;;;21.60;63.50;;;;;;5047659;28;19979;-58
2023/08/03 07:36:45;;;;;;;;;;;21.60;63.60;;;;;;5049396;28;20323;-59
2023/08/03 07:39:11;;;;;;;;;;;21.60;63.60;;;;;;5041811;28;20378;-58
2023/08/03 07:41:40;;;;;;;;;;;21.60;63.60;;;;;;5043895;28;20028;-59
2023/08/03 07:44:06;;;;;;;;;;;21.60;63.60;;;;;;5053202;28;19971;-59
2023/08/03 07:46:33;;;;;;;;;;;21.60;63.60;;;;;;5050982;28;19925;-59
2023/08/03 07:49:00;;;;;;;;;;;21.60;63.60;;;;;;5048991;28;19974;-60
2023/08/03 07:51:27;;;;;;;;;;;21.60;63.60;;;;;;5050940;28;19929;-60
2023/08/03 07:53:53;;;;;;;;;;;21.60;63.60;;;;;;5052868;28;19924;-60
2023/08/03 07:56:20;;;;;;;;;;;21.60;63.60;;;;;;5051042;28;19929;-59
2023/08/03 07:58:49;;;;;;;;;;;21.60;63.60;;;;;;5043299;28;19929;-59
2023/08/03 08:01:15;;;;;;;;;;;21.60;63.60;;;;;;5048687;28;19952;-58
2023/08/03 08:03:42;;;;;;;;;;;21.60;63.60;;;;;;5068309;28;19924;-59
2023/08/03 08:06:09;;;;;;;;;;;21.60;63.60;;;;;;5049968;28;19925;-60
2023/08/03 08:08:36;;;;;;;;;;;21.70;63.60;;;;;;5073781;28;19929;-59
2023/08/03 08:11:03;;;;;;;;;;;21.60;63.60;;;;;;5053180;28;19932;-59
2023/08/03 08:13:30;;;;;;;;;;;21.70;63.60;;;;;;5044501;28;19937;-59
2023/08/03 08:16:00;;;;;;;;;;;21.70;63.60;;;;;;5055211;28;19925;-58
2023/08/03 08:18:26;;;;;;;;;;;21.70;63.60;;;;;;5052054;28;19925;-58
2023/08/03 08:20:56;;;;;;;;;;;21.70;63.60;;;;;;5050972;28;19936;-58
2023/08/03 08:23:23;;;;;;;;;;;21.70;63.60;;;;;;5049574;28;19925;-59
2023/08/03 08:25:50;;;;;;;;;;;21.60;63.60;;;;;;5050767;28;19928;-59
2023/08/03 08:28:16;;;;;;;;;;;21.70;63.60;;;;;;5049648;28;19928;-59
2023/08/03 08:30:44;;;;;;;;;;;21.70;63.70;;;;;;5031624;28;19936;-59
2023/08/03 08:33:12;;;;;;;;;;;21.70;64.40;;;;;;5044596;28;19929;-59
2023/08/03 08:35:39;;;;;;;;;;;21.70;63.60;;;;;;5051101;28;19933;-58
2023/08/03 08:38:06;;;;;;;;;;;21.70;63.60;;;;;;5038802;28;19925;-59
2023/08/03 08:40:35;;;;;;;;;;;21.70;63.60;;;;;;5053207;28;19925;-59
2023/08/03 08:43:02;;;;;;;;;;;21.70;63.70;;;;;;5049607;28;19928;-59
2023/08/03 08:45:30;;;;;;;;;;;21.70;63.70;;;;;;5051645;28;19924;-58
2023/08/03 08:47:57;;;;;;;;;;;21.70;63.80;;;;;;5044398;28;19932;-59
2023/08/03 08:50:25;;;;;;;;;;;21.70;63.80;;;;;;5033253;28;19932;-59
2023/08/03 08:52:52;;;;;;;;;;;21.70;63.80;;;;;;5045356;28;19932;-58
2023/08/03 08:55:20;;;;;;;;;;;21.70;63.70;;;;;;5051809;28;19924;-58
2023/08/03 08:57:47;;;;;;;;;;;21.70;63.80;;;;;;5043919;28;19948;-59
2023/08/03 09:00:14;;;;;;;;;;;21.70;63.80;;;;;;5034901;28;19956;-59
2023/08/03 09:02:41;;;;;;;;;;;21.70;63.70;;;;;;5059422;28;19932;-59
2023/08/03 09:05:11;;;;;;;;;;;21.70;63.80;;;;;;5041597;28;19931;-59
2023/08/03 09:07:39;;;;;;;;;;;21.70;63.80;;;;;;5039317;28;19929;-59
2023/08/03 09:10:06;;;;;;;;;;;21.70;63.80;;;;;;5049708;28;19995;-58
2023/08/03 09:12:33;;;;;;;;;;;21.70;63.80;;;;;;5039875;28;19925;-59
2023/08/03 09:14:59;;;;;;;;;;;21.70;63.80;;;;;;5045406;28;19929;-59
2023/08/03 09:17:27;;;;;;;;;;;21.70;63.80;;;;;;5034663;28;19947;-59
2023/08/03 09:19:53;;;;;;;;;;;21.70;63.80;;;;;;5045819;28;19968;-59
2023/08/03 09:22:20;;;;;;;;;;;21.70;63.80;;;;;;5050608;28;19935;-59
2023/08/03 09:24:49;;;;;;;;;;;21.70;63.80;;;;;;5052069;28;19928;-58
2023/08/03 09:27:16;;;;;;;;;;;21.70;63.80;;;;;;5051834;28;19924;-59
2023/08/03 09:29:43;;;;;;;;;;;21.70;63.80;;;;;;5043953;28;19975;-59
2023/08/03 09:32:09;;;;;;;;;;;21.80;64.00;;;;;;5052669;28;19925;-59
2023/08/03 09:34:37;;;;;;;;;;;21.80;64.00;;;;;;5043681;28;19939;-59
2023/08/03 09:37:04;;;;;;;;;;;21.80;64.00;;;;;;5043893;28;20028;-59
2023/08/03 09:39:32;;;;;;;;;;;21.80;64.00;;;;;;5044568;28;19925;-59
2023/08/03 09:42:04;;;;;;;;;;;21.80;64.00;;;;;;5045169;28;19929;-59
2023/08/03 09:44:31;;;;;;;;;;;21.80;64.00;;;;;;5061889;28;19937;-59
2023/08/03 09:46:58;;;;;;;;;;;21.80;64.00;;;;;;5046189;28;19929;-58
2023/08/03 09:49:25;;;;;;;;;;;21.80;64.00;;;;;;5046669;28;19964;-59
2023/08/03 09:51:53;;;;;;;;;;;21.80;64.10;;;;;;5048594;28;19952;-59
2023/08/03 09:54:25;;;;;;;;;;;21.80;64.10;;;;;;5045242;28;19932;-59
2023/08/03 09:56:53;;;;;;;;;;;21.80;64.00;;;;;;5051420;28;19928;-59
2023/08/03 09:59:25;;;;;;;;;;;21.80;64.10;;;;;;5049625;28;19936;-58
2023/08/03 10:01:53;;;;;;;;;;;21.80;64.00;;;;;;5036228;28;20016;-59
2023/08/03 10:04:19;;;;;;;;;;;21.90;64.20;;;;;;5047401;28;19951;-58
2023/08/03 10:06:47;;;;;;;;;;;21.90;64.10;;;;;;5046233;28;19932;-59
2023/08/03 10:09:14;;;;;;;;;;;21.90;64.20;;;;;;5052391;28;19929;-58
2023/08/03 10:11:42;;;;;;;;;;;21.90;64.20;;;;;;5050981;28;19928;-58
2023/08/03 10:14:09;;;;;;;;;;;21.90;64.20;;;;;;5051485;28;19925;-57
2023/08/03 10:16:37;;;;;;;;;;;21.90;64.20;;;;;;5038779;28;20025;-58
2023/08/03 10:19:05;;;;;;;;;;;21.90;64.30;;;;;;5041988;28;19924;-57
2023/08/03 10:21:32;;;;;;;;;;;21.90;64.40;;;;;;5042127;28;20028;-58
2023/08/03 10:24:08;;;;;;;;;;;21.90;64.30;;;;;;5039333;28;19938;-58
2023/08/03 10:26:35;;;;;;;;;;;21.90;64.30;;;;;;5048475;28;19925;-58
2023/08/03 10:29:02;;;;;;;;;;;21.90;64.30;;;;;;5044121;28;19936;-57
2023/08/03 10:31:29;;;;;;;;;;;21.90;64.40;;;;;;5050166;28;19932;-57
2023/08/03 10:34:08;;;;;;;;;;;21.90;64.40;;;;;;5051632;28;19925;-57
2023/08/03 10:36:39;;;;;;;;;;;21.90;64.40;;;;;;5046283;28;19954;-58
2023/08/03 10:39:09;;;;;;;;;;;21.90;65.10;;;;;;5047361;28;19971;-57
2023/08/03 10:41:37;;;;;;;;;;;21.90;64.40;;;;;;5038348;28;19925;-58
2023/08/03 10:44:22;;;;;;;;;;;21.90;64.40;;;;;;5060392;28;19956;-58
2023/08/03 10:46:49;;;;;;;;;;;21.90;64.30;;;;;;5037892;28;20344;-58
2023/08/03 10:49:33;;;;;;;;;;;21.90;64.30;;;;;;5060708;28;19929;-58
2023/08/03 10:54:55;;;;;;;;;;;21.90;64.40;;;;;;5133259;27;19922;-56
2023/08/03 10:57:24;;;;;;;;;;;21.90;64.30;;;;;;5116523;27;19924;-57
2023/08/03 10:59:51;;;;;;;;;;;21.90;64.40;;;;;;5133472;27;20026;-55
2023/08/03 11:02:20;;;;;;;;;;;21.90;64.40;;;;;;5127260;27;19923;-57
2023/08/03 11:04:47;;;;;;;;;;;21.90;64.40;;;;;;5117288;28;19977;-56
2023/08/03 11:07:15;;;;;;;;;;;21.90;64.50;;;;;;5134142;27;19924;-56
2023/08/03 11:09:42;;;;;;;;;;;21.90;64.50;;;;;;5118349;28;19928;-55
2023/08/03 11:12:10;;;;;;;;;;;21.90;64.50;;;;;;5120437;27;19931;-56
2023/08/03 11:14:39;;;;;;;;;;;21.90;64.50;;;;;;5125174;27;19934;-56
2023/08/03 11:17:06;;;;;;;;;;;21.90;64.60;;;;;;5123344;27;19935;-56
2023/08/03 11:19:37;;;;;;;;;;;21.90;64.60;;;;;;5131583;27;20376;-57
2023/08/03 11:22:04;;;;;;;;;;;21.90;64.60;;;;;;5114799;28;19980;-57
2023/08/03 11:24:31;;;;;;;;;;;21.90;64.60;;;;;;5116205;27;19927;-56
2023/08/03 11:26:58;;;;;;;;;;;21.90;64.60;;;;;;5115424;28;19924;-57
2023/08/03 11:29:26;;;;;;;;;;;21.90;64.60;;;;;;5148462;27;19924;-56
2023/08/03 11:31:53;;;;;;;;;;;21.90;64.60;;;;;;5114038;28;20373;-56
2023/08/03 11:34:20;;;;;;;;;;;21.90;64.60;;;;;;5110794;27;19924;-57
2023/08/03 11:36:50;;;;;;;;;;;21.90;64.60;;;;;;5129894;27;19938;-57
2023/08/03 11:39:17;;;;;;;;;;;22.00;64.80;;;;;;5116778;27;19970;-55
2023/08/03 11:41:44;;;;;;;;;;;22.00;65.00;;;;;;5116603;28;19971;-56
2023/08/03 11:44:11;;;;;;;;;;;22.00;65.00;;;;;;5122263;27;19950;-56
2023/08/03 11:46:39;;;;;;;;;;;22.00;65.10;;;;;;5117948;28;20018;-56
2023/08/03 11:49:07;;;;;;;;;;;22.00;65.10;;;;;;5111843;27;19928;-56
2023/08/03 11:51:34;;;;;;;;;;;22.00;65.10;;;;;;5134730;27;19923;-56
2023/08/03 11:54:02;;;;;;;;;;;22.00;65.10;;;;;;5115223;27;19923;-56
2023/08/03 11:56:29;;;;;;;;;;;22.10;65.30;;;;;;5120868;27;19924;-60
2023/08/03 11:58:56;;;;;;;;;;;22.10;65.30;;;;;;5116031;28;19949;-59
2023/08/03 12:01:24;;;;;;;;;;;22.10;65.70;;;;;;5109876;27;19931;-59
2023/08/03 12:03:56;;;;;;;;;;;22.10;66.10;;;;;;5143529;27;19993;-59
2023/08/03 12:06:23;;;;;;;;;;;22.00;65.50;;;;;;5101049;28;19973;-59
2023/08/03 12:08:50;;;;;;;;;;;22.00;65.20;;;;;;5110028;28;19923;-59
2023/08/03 12:11:17;;;;;;;;;;;22.00;65.10;;;;;;5117689;27;20302;-59
2023/08/03 12:13:44;;;;;;;;;;;21.90;65.10;;;;;;5130940;27;19927;-59
2023/08/03 12:16:11;;;;;;;;;;;21.90;65.30;;;;;;5102018;28;20329;-60
2023/08/03 12:18:38;;;;;;;;;;;21.90;65.50;;;;;;5101066;27;19923;-59
2023/08/03 12:21:06;;;;;;;;;;;21.90;65.60;;;;;;5105814;28;19928;-60
2023/08/03 12:23:34;;;;;;;;;;;21.80;65.70;;;;;;5129639;27;20374;-59
2023/08/03 12:26:00;;;;;;;;;;;21.80;65.80;;;;;;5100239;28;19981;-59
2023/08/03 12:28:27;;;;;;;;;;;21.80;65.90;;;;;;5123947;27;19976;-59
2023/08/03 12:30:54;;;;;;;;;;;21.80;66.00;;;;;;5115642;27;19924;-58
2023/08/03 12:33:21;;;;;;;;;;;21.80;66.10;;;;;;5095893;28;20002;-60
2023/08/03 12:35:47;;;;;;;;;;;21.70;66.00;;;;;;5097999;28;20026;-59
2023/08/03 12:38:16;;;;;;;;;;;21.70;66.10;;;;;;5102190;28;20266;-60
2023/08/03 12:40:42;;;;;;;;;;;21.70;66.10;;;;;;5115735;27;19928;-60
2023/08/03 12:43:09;;;;;;;;;;;21.70;66.30;;;;;;5095763;27;19923;-60
2023/08/03 12:45:36;;;;;;;;;;;21.70;66.60;;;;;;5099615;28;19928;-60
2023/08/03 12:48:03;;;;;;;;;;;21.70;66.70;;;;;;5100541;27;20063;-60
2023/08/03 12:50:29;;;;;;;;;;;21.70;66.90;;;;;;5121304;27;19923;-60
2023/08/03 12:52:56;;;;;;;;;;;21.70;67.00;;;;;;5107597;28;19954;-60
2023/08/03 12:55:24;;;;;;;;;;;21.70;67.20;;;;;;5097922;28;19935;-59
2023/08/03 12:57:51;;;;;;;;;;;21.70;67.30;;;;;;5098670;28;19973;-60
2023/08/03 13:00:18;;;;;;;;;;;21.70;67.50;;;;;;5114176;27;19927;-61
2023/08/03 13:02:45;;;;;;;;;;;21.70;67.60;;;;;;5100670;28;19924;-60
2023/08/03 13:05:11;;;;;;;;;;;21.70;67.60;;;;;;5113502;27;19981;-59
2023/08/03 13:07:38;;;;;;;;;;;21.70;67.80;;;;;;5121619;27;19923;-59
2023/08/03 13:10:06;;;;;;;;;;;21.70;68.00;;;;;;5100588;28;19938;-58
2023/08/03 13:12:34;;;;;;;;;;;21.70;68.10;;;;;;5122737;27;19930;-60
2023/08/03 13:15:00;;;;;;;;;;;21.70;68.00;;;;;;5094873;28;19924;-60
2023/08/03 13:17:27;;;;;;;;;;;21.70;68.10;;;;;;5127926;27;19924;-60
2023/08/03 13:19:54;;;;;;;;;;;21.70;68.10;;;;;;5128760;27;20261;-59
2023/08/03 13:22:21;;;;;;;;;;;21.70;68.10;;;;;;5096760;27;19924;-59
2023/08/03 13:24:48;;;;;;;;;;;21.80;68.40;;;;;;5113578;27;19930;-59
2023/08/03 13:27:15;;;;;;;;;;;21.80;68.30;;;;;;5102713;27;19972;-60
2023/08/03 13:29:47;;;;;;;;;;;21.80;68.10;;;;;;5108127;27;19923;-59
2023/08/03 13:32:14;;;;;;;;;;;21.80;68.10;;;;;;5127352;27;19931;-59
2023/08/03 13:34:41;;;;;;;;;;;21.80;67.90;;;;;;5105848;27;19932;-59
2023/08/03 13:37:08;;;;;;;;;;;21.80;67.60;;;;;;5106033;27;19931;-59
2023/08/03 13:39:35;;;;;;;;;;;21.90;67.70;;;;;;5106512;27;19944;-59
2023/08/03 13:42:02;;;;;;;;;;;21.90;67.60;;;;;;5121441;27;19933;-59
2023/08/03 13:44:28;;;;;;;;;;;21.90;67.60;;;;;;5102819;28;20376;-59
2023/08/03 13:46:57;;;;;;;;;;;21.90;67.60;;;;;;5122220;27;19924;-59
2023/08/03 13:49:23;;;;;;;;;;;21.90;67.60;;;;;;5113398;27;19924;-60
2023/08/03 13:51:50;;;;;;;;;;;21.90;67.70;;;;;;5097855;28;20403;-60
2023/08/03 13:54:17;;;;;;;;;;;21.90;67.60;;;;;;5102324;28;20026;-59
2023/08/03 13:56:44;;;;;;;;;;;21.90;67.60;;;;;;5119851;27;19927;-60
2023/08/03 13:59:11;;;;;;;;;;;22.00;67.80;;;;;;5111286;27;19928;-59
2023/08/03 14:01:38;;;;;;;;;;;22.00;67.80;;;;;;5104253;27;19927;-60
2023/08/03 14:04:08;;;;;;;;;;;22.00;67.70;;;;;;5104128;28;19924;-60
2023/08/03 14:06:35;;;;;;;;;;;22.00;67.70;;;;;;5118888;27;19924;-59
2023/08/03 14:09:02;;;;;;;;;;;22.00;67.60;;;;;;5102191;28;19927;-60
2023/08/03 14:11:29;;;;;;;;;;;22.00;67.90;;;;;;5120014;27;19924;-59
2023/08/03 14:14:00;;;;;;;;;;;22.00;68.00;;;;;;5118880;27;19927;-61
2023/08/03 14:16:27;;;;;;;;;;;22.00;67.80;;;;;;5130983;27;19931;-60
2023/08/03 14:18:54;;;;;;;;;;;22.10;67.90;;;;;;5114147;27;19923;-60